Pola de Lena, Spain
Current Conditions -  °F | °C
As of 5:00 PM on Friday 28 Nov 2014 (Local Time) from LEAS Reporting Station
Scattered Clouds Scattered Clouds  
Wind Chill: 13°   Ceiling: Unl
Heat Index: 13°   Visibility: 6mi
Dew Point: 11°   Wind: 15mph
Humidity: 88%   Direction: 300°WNW
Pressure: 29.06"   Gusts: 26mph
Location:  43.16°N, 5.83°W
Report Text: LEAS 281600Z 30013G23KT 250V340 9999 FEW013 SCT072 13/11 Q0984 NOSIG
Loading
Personal Weather Stations






























Interactive Weather Map New forecast layout! Learn more

10-Day Weather Forecast

Advertisements
Track Severe Weather on mobile